Time;durP1;ratioP1;P1;durP2;ratioP2;P2;SDS_P1;SDS_P2;PMS_P1;PMS_P2;Temp;Humidity;BMP_temperature;BMP_pressure;BME280_temperature;BME280_humidity;BME280_pressure;Samples;Min_cycle;Max_cycle;Signal;HPM_P1;HPM_P2
2024/01/30 00:02:10;;;;;;;13.77;7.55;;;;;;;;;;5047298;28;20055;-67
2024/01/30 00:04:37;;;;;;;12.50;7.80;;;;;;;;;;5035181;28;20410;-67
2024/01/30 00:07:05;;;;;;;12.60;8.23;;;;;;;;;;5049325;28;20432;-67
2024/01/30 00:09:31;;;;;;;12.98;7.32;;;;;;;;;;5048231;28;20124;-67
2024/01/30 00:11:57;;;;;;;14.10;7.97;;;;;;;;;;5045654;28;20493;-66
2024/01/30 00:14:24;;;;;;;15.40;8.02;;;;;;;;;;5033399;28;20498;-67
2024/01/30 00:16:51;;;;;;;12.05;7.97;;;;;;;;;;5035274;28;20415;-67
2024/01/30 00:19:17;;;;;;;14.00;8.55;;;;;;;;;;5039095;28;20048;-67
2024/01/30 00:21:44;;;;;;;14.15;8.02;;;;;;;;;;5048773;28;20045;-67
2024/01/30 00:24:12;;;;;;;13.30;8.15;;;;;;;;;;5043131;28;20051;-67
2024/01/30 00:26:38;;;;;;;15.45;8.38;;;;;;;;;;5048737;28;21172;-67
2024/01/30 00:29:04;;;;;;;13.68;8.35;;;;;;;;;;5044121;28;20049;-67
2024/01/30 00:31:31;;;;;;;11.57;7.40;;;;;;;;;;5047995;28;20051;-66
2024/01/30 00:33:57;;;;;;;12.48;7.72;;;;;;;;;;5050538;28;20517;-67
2024/01/30 00:36:23;;;;;;;12.57;7.03;;;;;;;;;;5043145;28;20045;-67
2024/01/30 00:38:50;;;;;;;13.52;7.53;;;;;;;;;;5049963;28;20048;-67
2024/01/30 00:41:19;;;;;;;15.25;7.80;;;;;;;;;;5049292;28;20053;-66
2024/01/30 00:43:46;;;;;;;12.10;7.43;;;;;;;;;;5048833;28;20045;-67
2024/01/30 00:46:12;;;;;;;12.27;7.57;;;;;;;;;;5049361;28;20048;-67
2024/01/30 00:48:38;;;;;;;13.27;8.50;;;;;;;;;;5041226;28;20080;-67
2024/01/30 00:51:05;;;;;;;11.75;7.47;;;;;;;;;;5047993;28;20049;-67
2024/01/30 00:53:31;;;;;;;15.43;8.57;;;;;;;;;;5034595;28;20055;-67
2024/01/30 00:55:58;;;;;;;20.08;8.10;;;;;;;;;;5049075;28;20076;-67
2024/01/30 00:58:26;;;;;;;15.50;8.50;;;;;;;;;;5039291;28;20050;-66
2024/01/30 01:00:53;;;;;;;16.13;8.55;;;;;;;;;;5041930;28;20052;-66
2024/01/30 01:03:19;;;;;;;16.30;8.10;;;;;;;;;;5041819;28;20057;-67
2024/01/30 01:05:45;;;;;;;13.95;8.90;;;;;;;;;;5045929;28;20049;-67
2024/01/30 01:08:12;;;;;;;13.27;8.20;;;;;;;;;;5033735;28;20041;-67
2024/01/30 01:10:38;;;;;;;15.70;8.90;;;;;;;;;;5052470;28;20710;-67
2024/01/30 01:13:04;;;;;;;15.23;8.07;;;;;;;;;;5052786;28;20413;-67
2024/01/30 01:15:31;;;;;;;18.20;9.13;;;;;;;;;;5039312;28;20047;-67
2024/01/30 01:17:58;;;;;;;17.63;8.13;;;;;;;;;;5049178;28;20410;-67
2024/01/30 01:20:24;;;;;;;16.48;8.10;;;;;;;;;;5034958;28;20075;-67
2024/01/30 01:22:52;;;;;;;14.20;8.90;;;;;;;;;;5045802;28;20051;-66
2024/01/30 01:25:19;;;;;;;14.88;8.30;;;;;;;;;;5038749;28;20046;-66
2024/01/30 01:27:51;;;;;;;15.48;8.32;;;;;;;;;;5053705;28;20092;-68
2024/01/30 01:30:21;;;;;;;15.15;8.48;;;;;;;;;;5048967;28;20091;-67
2024/01/30 01:32:54;;;;;;;18.40;8.63;;;;;;;;;;5052334;28;20052;-68
2024/01/30 01:35:21;;;;;;;17.55;8.30;;;;;;;;;;5051583;28;20049;-69
2024/01/30 01:37:47;;;;;;;19.98;8.23;;;;;;;;;;5051965;28;20132;-68
2024/01/30 01:40:13;;;;;;;15.60;8.45;;;;;;;;;;5043035;28;20049;-68
2024/01/30 01:42:40;;;;;;;15.65;8.95;;;;;;;;;;5046426;28;20049;-68
2024/01/30 01:45:06;;;;;;;15.90;9.15;;;;;;;;;;5048680;28;20056;-68
2024/01/30 01:47:33;;;;;;;15.50;8.63;;;;;;;;;;5051990;28;20413;-69
2024/01/30 01:50:00;;;;;;;16.33;8.63;;;;;;;;;;5045671;28;20056;-68
2024/01/30 01:52:27;;;;;;;16.63;8.57;;;;;;;;;;5052427;28;20045;-68
2024/01/30 01:54:53;;;;;;;14.68;8.30;;;;;;;;;;5048293;28;20042;-68
2024/01/30 01:57:20;;;;;;;14.63;8.52;;;;;;;;;;5035051;28;20053;-68
2024/01/30 01:59:46;;;;;;;17.27;9.63;;;;;;;;;;5042390;28;20060;-68
2024/01/30 02:02:13;;;;;;;17.25;8.48;;;;;;;;;;5040922;28;20045;-68
2024/01/30 02:04:40;;;;;;;17.25;8.20;;;;;;;;;;5043993;28;20045;-68
2024/01/30 02:07:08;;;;;;;18.27;9.05;;;;;;;;;;5045476;28;20497;-68
2024/01/30 02:09:34;;;;;;;16.58;9.65;;;;;;;;;;5049903;28;20055;-68
2024/01/30 02:12:01;;;;;;;15.10;8.50;;;;;;;;;;5046609;28;20521;-68
2024/01/30 02:14:27;;;;;;;16.38;9.23;;;;;;;;;;5050180;28;20092;-67
2024/01/30 02:16:53;;;;;;;19.23;8.80;;;;;;;;;;5052137;28;20497;-68
2024/01/30 02:19:20;;;;;;;13.05;7.60;;;;;;;;;;5043615;28;20400;-67
2024/01/30 02:21:48;;;;;;;14.02;8.48;;;;;;;;;;5052524;28;20060;-67
2024/01/30 02:24:15;;;;;;;14.18;8.50;;;;;;;;;;5049937;28;20071;-67
2024/01/30 02:26:41;;;;;;;14.60;8.48;;;;;;;;;;5045266;28;20056;-68
2024/01/30 02:29:07;;;;;;;15.70;8.82;;;;;;;;;;5051870;28;20053;-67
2024/01/30 02:31:34;;;;;;;17.42;8.80;;;;;;;;;;5050974;28;20537;-67
2024/01/30 02:34:00;;;;;;;16.23;8.38;;;;;;;;;;5052316;28;20409;-67
2024/01/30 02:36:27;;;;;;;14.95;8.70;;;;;;;;;;5051722;28;20476;-67
2024/01/30 02:38:54;;;;;;;13.77;7.95;;;;;;;;;;5050663;28;20041;-67
2024/01/30 02:41:21;;;;;;;14.00;8.48;;;;;;;;;;5036975;28;20152;-67
2024/01/30 02:43:47;;;;;;;16.52;8.35;;;;;;;;;;5052221;28;20132;-67
2024/01/30 02:46:14;;;;;;;12.95;8.18;;;;;;;;;;5049333;28;20047;-67
2024/01/30 02:48:40;;;;;;;14.80;8.65;;;;;;;;;;5051279;28;20049;-68
2024/01/30 02:51:06;;;;;;;14.93;8.13;;;;;;;;;;5051660;28;20053;-67
2024/01/30 02:53:33;;;;;;;14.13;8.63;;;;;;;;;;5048411;28;20044;-68
2024/01/30 02:56:02;;;;;;;12.45;7.72;;;;;;;;;;5052061;28;20119;-68
2024/01/30 02:58:28;;;;;;;13.18;8.38;;;;;;;;;;5051285;28;20045;-67
2024/01/30 03:00:54;;;;;;;12.45;8.20;;;;;;;;;;5051203;28;20049;-69
2024/01/30 03:03:21;;;;;;;12.82;8.40;;;;;;;;;;5044023;28;20041;-67
2024/01/30 03:05:47;;;;;;;12.13;7.65;;;;;;;;;;5052023;28;20052;-68
2024/01/30 03:08:13;;;;;;;11.20;8.25;;;;;;;;;;5043917;28;20654;-67
2024/01/30 03:10:40;;;;;;;12.63;8.35;;;;;;;;;;5050116;28;20049;-67
2024/01/30 03:13:07;;;;;;;13.38;8.75;;;;;;;;;;5051650;28;20045;-67
2024/01/30 03:15:34;;;;;;;13.10;8.68;;;;;;;;;;5044119;28;20042;-67
2024/01/30 03:18:00;;;;;;;13.85;9.30;;;;;;;;;;5051227;28;20055;-67
2024/01/30 03:20:26;;;;;;;14.02;8.35;;;;;;;;;;5039079;28;20056;-67
2024/01/30 03:22:53;;;;;;;13.05;8.55;;;;;;;;;;5051587;28;20052;-67
2024/01/30 03:25:19;;;;;;;15.02;8.80;;;;;;;;;;5050525;28;20052;-68
2024/01/30 03:27:45;;;;;;;14.95;8.82;;;;;;;;;;5045823;28;20064;-66
2024/01/30 03:30:13;;;;;;;15.23;9.40;;;;;;;;;;5045825;28;20067;-68
2024/01/30 03:32:40;;;;;;;13.93;8.48;;;;;;;;;;5045655;28;20061;-67
2024/01/30 03:35:06;;;;;;;12.95;8.63;;;;;;;;;;5046162;28;20045;-67
2024/01/30 03:37:33;;;;;;;15.98;9.57;;;;;;;;;;5046995;28;20060;-67
2024/01/30 03:39:59;;;;;;;13.63;8.55;;;;;;;;;;5044396;28;20071;-68
2024/01/30 03:42:25;;;;;;;15.00;8.70;;;;;;;;;;5050608;28;20045;-67
2024/01/30 03:44:53;;;;;;;14.52;8.77;;;;;;;;;;5050993;28;20076;-68
2024/01/30 03:47:21;;;;;;;13.15;8.30;;;;;;;;;;5043905;28;20107;-69
2024/01/30 03:49:47;;;;;;;14.38;9.05;;;;;;;;;;5047275;28;20042;-67
2024/01/30 03:52:14;;;;;;;15.90;8.93;;;;;;;;;;5038918;28;20052;-67
2024/01/30 03:54:40;;;;;;;15.02;9.68;;;;;;;;;;5050779;28;20060;-67
2024/01/30 03:57:06;;;;;;;14.13;9.27;;;;;;;;;;5046911;28;20041;-67
2024/01/30 03:59:33;;;;;;;14.73;9.35;;;;;;;;;;5048085;28;20116;-67
2024/01/30 04:01:59;;;;;;;18.35;10.27;;;;;;;;;;5046078;28;20076;-67
2024/01/30 04:04:27;;;;;;;13.88;9.00;;;;;;;;;;5040981;28;20056;-68
2024/01/30 04:06:53;;;;;;;18.70;9.88;;;;;;;;;;5050856;28;20081;-67
2024/01/30 04:09:20;;;;;;;13.95;8.60;;;;;;;;;;5041525;28;20057;-67
2024/01/30 04:11:46;;;;;;;13.52;8.75;;;;;;;;;;5046852;28;20501;-67
2024/01/30 04:14:12;;;;;;;16.02;9.05;;;;;;;;;;5049566;28;20409;-67
2024/01/30 04:16:39;;;;;;;15.90;9.88;;;;;;;;;;5040648;28;20040;-67
2024/01/30 04:19:05;;;;;;;15.32;9.25;;;;;;;;;;5036368;28;20051;-67
2024/01/30 04:21:33;;;;;;;14.95;9.40;;;;;;;;;;5047115;28;20049;-67
2024/01/30 04:23:59;;;;;;;16.38;9.18;;;;;;;;;;5047546;28;20044;-67
2024/01/30 04:26:25;;;;;;;16.65;9.35;;;;;;;;;;5049866;28;20056;-67
2024/01/30 04:28:52;;;;;;;17.98;9.82;;;;;;;;;;5045614;28;20468;-68
2024/01/30 04:31:18;;;;;;;17.85;10.32;;;;;;;;;;5042448;28;20073;-66
2024/01/30 04:33:44;;;;;;;15.27;9.10;;;;;;;;;;5046838;28;20041;-68
2024/01/30 04:36:11;;;;;;;16.00;9.35;;;;;;;;;;5044384;28;20053;-68
2024/01/30 04:38:39;;;;;;;17.20;10.00;;;;;;;;;;5033166;28;20052;-67
2024/01/30 04:41:05;;;;;;;15.38;9.20;;;;;;;;;;5037512;28;20050;-67
2024/01/30 04:43:32;;;;;;;18.35;9.63;;;;;;;;;;5050021;28;20051;-67
2024/01/30 04:45:58;;;;;;;15.77;9.75;;;;;;;;;;5047400;28;20478;-69
2024/01/30 04:48:24;;;;;;;13.57;8.93;;;;;;;;;;5054021;28;20132;-67
2024/01/30 04:50:51;;;;;;;14.25;9.07;;;;;;;;;;5046347;28;20055;-68
2024/01/30 04:53:17;;;;;;;15.68;9.30;;;;;;;;;;5046022;28;20600;-67
2024/01/30 04:55:45;;;;;;;14.98;9.32;;;;;;;;;;5045506;28;20052;-67
2024/01/30 04:58:11;;;;;;;14.88;9.38;;;;;;;;;;5054634;28;20053;-68
2024/01/30 05:00:37;;;;;;;16.88;9.60;;;;;;;;;;5052826;28;20553;-67
2024/01/30 05:03:04;;;;;;;15.93;9.88;;;;;;;;;;5051084;28;20056;-67
2024/01/30 05:05:30;;;;;;;18.25;9.55;;;;;;;;;;5054157;28;20049;-68
2024/01/30 05:07:57;;;;;;;12.15;8.63;;;;;;;;;;5053253;28;20045;-67
2024/01/30 05:10:23;;;;;;;15.88;9.45;;;;;;;;;;5050211;28;20500;-68
2024/01/30 05:12:51;;;;;;;15.02;9.15;;;;;;;;;;5050987;28;20045;-68
2024/01/30 05:15:17;;;;;;;15.82;9.63;;;;;;;;;;5041983;28;20049;-69
2024/01/30 05:17:44;;;;;;;14.85;9.40;;;;;;;;;;5053698;28;20052;-67
2024/01/30 05:20:11;;;;;;;15.20;8.65;;;;;;;;;;5053244;28;20044;-69
2024/01/30 05:22:37;;;;;;;16.80;9.27;;;;;;;;;;5053238;28;20421;-67
2024/01/30 05:25:04;;;;;;;15.80;9.32;;;;;;;;;;5053538;28;20045;-68
2024/01/30 05:27:31;;;;;;;17.15;9.50;;;;;;;;;;5044615;28;20056;-67
2024/01/30 05:29:58;;;;;;;15.05;9.52;;;;;;;;;;5039237;28;20051;-67
2024/01/30 05:32:25;;;;;;;17.05;10.05;;;;;;;;;;5049574;28;20051;-67
2024/01/30 05:34:51;;;;;;;19.63;9.77;;;;;;;;;;5045875;28;20421;-68
2024/01/30 05:37:17;;;;;;;17.45;10.45;;;;;;;;;;5042734;28;20052;-67
2024/01/30 05:39:44;;;;;;;18.50;10.38;;;;;;;;;;5052308;28;20134;-68
2024/01/30 05:42:11;;;;;;;16.75;9.77;;;;;;;;;;5051454;28;20548;-67
2024/01/30 05:44:37;;;;;;;17.63;9.93;;;;;;;;;;5052320;28;20102;-67
2024/01/30 05:47:05;;;;;;;16.30;9.38;;;;;;;;;;5053355;28;20536;-67
2024/01/30 05:49:31;;;;;;;16.30;9.38;;;;;;;;;;5049304;28;20056;-67
2024/01/30 05:51:58;;;;;;;14.40;8.82;;;;;;;;;;5052792;28;20048;-67
2024/01/30 05:54:24;;;;;;;17.05;8.90;;;;;;;;;;5052860;28;20493;-68
2024/01/30 05:56:51;;;;;;;16.05;9.07;;;;;;;;;;5053234;28;20091;-69
2024/01/30 05:59:19;;;;;;;13.65;8.93;;;;;;;;;;5044284;28;20050;-67
2024/01/30 06:01:46;;;;;;;16.08;8.98;;;;;;;;;;5049219;28;20409;-67
2024/01/30 06:04:14;;;;;;;18.40;9.75;;;;;;;;;;5048608;28;20544;-68
2024/01/30 06:06:40;;;;;;;16.88;9.60;;;;;;;;;;5044407;28;20497;-67
2024/01/30 06:09:08;;;;;;;14.23;9.00;;;;;;;;;;5052635;28;20049;-67
2024/01/30 06:11:35;;;;;;;15.18;9.27;;;;;;;;;;5051460;28;20528;-66
2024/01/30 06:14:02;;;;;;;16.13;9.23;;;;;;;;;;5051894;28;20045;-67
2024/01/30 06:16:29;;;;;;;18.23;8.30;;;;;;;;;;5045489;28;20047;-67
2024/01/30 06:18:55;;;;;;;12.95;8.88;;;;;;;;;;5039160;28;20073;-67
2024/01/30 06:21:23;;;;;;;15.35;8.93;;;;;;;;;;5047965;28;20049;-67
2024/01/30 06:23:50;;;;;;;17.70;9.18;;;;;;;;;;5052744;28;20067;-67
2024/01/30 06:26:16;;;;;;;20.63;9.50;;;;;;;;;;5053046;28;20041;-67
2024/01/30 06:28:42;;;;;;;15.93;9.43;;;;;;;;;;5052323;28;20051;-67
2024/01/30 06:31:09;;;;;;;18.10;9.00;;;;;;;;;;5051939;28;20041;-67
2024/01/30 06:33:35;;;;;;;16.52;9.63;;;;;;;;;;5049306;28;20045;-67
2024/01/30 06:36:01;;;;;;;18.95;9.93;;;;;;;;;;5052492;28;20045;-68
2024/01/30 06:38:29;;;;;;;17.85;9.65;;;;;;;;;;5050656;28;20049;-68
2024/01/30 06:40:56;;;;;;;15.70;9.85;;;;;;;;;;5047789;28;20470;-67
2024/01/30 06:43:23;;;;;;;19.30;10.10;;;;;;;;;;5045637;28;20073;-67
2024/01/30 06:45:50;;;;;;;15.43;9.45;;;;;;;;;;5052279;28;20049;-68
2024/01/30 06:48:16;;;;;;;18.63;10.43;;;;;;;;;;5051435;28;20041;-67
2024/01/30 06:50:43;;;;;;;18.40;10.23;;;;;;;;;;5050409;28;20049;-67
2024/01/30 06:53:09;;;;;;;18.40;9.25;;;;;;;;;;5052224;28;20421;-67
2024/01/30 06:55:37;;;;;;;18.67;10.35;;;;;;;;;;5052220;28;20051;-68
2024/01/30 06:58:03;;;;;;;17.30;9.48;;;;;;;;;;5052208;28;20448;-67
2024/01/30 07:00:30;;;;;;;17.20;9.82;;;;;;;;;;5046866;28;20303;-67
2024/01/30 07:02:56;;;;;;;17.17;9.60;;;;;;;;;;5048904;28;20127;-67
2024/01/30 07:05:23;;;;;;;20.35;11.10;;;;;;;;;;5043480;28;20046;-67
2024/01/30 07:07:49;;;;;;;23.77;12.00;;;;;;;;;;5043168;28;20055;-67
2024/01/30 07:10:16;;;;;;;21.30;12.02;;;;;;;;;;5048166;28;20544;-67
2024/01/30 07:12:43;;;;;;;19.52;10.85;;;;;;;;;;5051184;28;20497;-67
2024/01/30 07:15:10;;;;;;;17.42;9.45;;;;;;;;;;5051743;28;20076;-69
2024/01/30 07:17:37;;;;;;;15.50;9.38;;;;;;;;;;5050897;28;20088;-67
2024/01/30 07:20:04;;;;;;;19.90;9.95;;;;;;;;;;5045766;28;20045;-67
2024/01/30 07:22:31;;;;;;;18.10;10.18;;;;;;;;;;5048943;28;20072;-67
2024/01/30 07:24:57;;;;;;;18.60;10.82;;;;;;;;;;5051624;28;20102;-68
2024/01/30 07:27:23;;;;;;;16.33;9.98;;;;;;;;;;5036599;28;20046;-68
2024/01/30 07:29:51;;;;;;;20.10;10.40;;;;;;;;;;5050335;28;20048;-67
2024/01/30 07:32:18;;;;;;;17.98;9.88;;;;;;;;;;5040516;28;20045;-67
2024/01/30 07:34:44;;;;;;;34.58;18.98;;;;;;;;;;5050617;28;20053;-67
2024/01/30 07:37:15;;;;;;;28.58;16.27;;;;;;;;;;5044556;28;20073;-67
2024/01/30 07:39:41;;;;;;;25.75;13.52;;;;;;;;;;5049684;28;20139;-68
2024/01/30 07:42:08;;;;;;;25.70;13.02;;;;;;;;;;5051171;28;20041;-67
2024/01/30 07:44:35;;;;;;;26.58;12.98;;;;;;;;;;5042576;28;20497;-67
2024/01/30 07:47:03;;;;;;;25.60;12.40;;;;;;;;;;5051467;28;20080;-67
2024/01/30 07:49:29;;;;;;;21.88;11.70;;;;;;;;;;5041790;28;20099;-67
2024/01/30 07:51:55;;;;;;;22.77;10.73;;;;;;;;;;5046882;28;20053;-67
2024/01/30 07:54:23;;;;;;;20.00;10.15;;;;;;;;;;5039356;28;20060;-66
2024/01/30 07:56:49;;;;;;;16.95;9.90;;;;;;;;;;5047219;28;20551;-67
2024/01/30 07:59:16;;;;;;;18.05;10.43;;;;;;;;;;5049907;28;20490;-67
2024/01/30 08:01:42;;;;;;;21.02;11.05;;;;;;;;;;5050452;28;20084;-67
2024/01/30 08:04:10;;;;;;;21.65;11.15;;;;;;;;;;5051033;28;20045;-67
2024/01/30 08:06:36;;;;;;;21.58;11.02;;;;;;;;;;5047797;28;20049;-67
2024/01/30 08:09:03;;;;;;;23.25;11.18;;;;;;;;;;5044330;28;20497;-67
2024/01/30 08:11:30;;;;;;;18.90;10.05;;;;;;;;;;5044471;28;20045;-68
2024/01/30 08:13:57;;;;;;;20.77;11.27;;;;;;;;;;5046481;28;20098;-67
2024/01/30 08:16:23;;;;;;;20.98;11.25;;;;;;;;;;5046582;28;20604;-67
2024/01/30 08:18:49;;;;;;;19.95;11.13;;;;;;;;;;5041211;28;20049;-67
2024/01/30 08:21:17;;;;;;;20.13;10.80;;;;;;;;;;5039186;28;20041;-67
2024/01/30 08:23:43;;;;;;;17.75;10.02;;;;;;;;;;5048587;28;20045;-67
2024/01/30 08:26:10;;;;;;;17.90;9.98;;;;;;;;;;5049570;28;20056;-66
2024/01/30 08:28:36;;;;;;;17.77;9.75;;;;;;;;;;5038060;28;20064;-66
2024/01/30 08:31:03;;;;;;;16.63;9.52;;;;;;;;;;5043783;28;20425;-69
2024/01/30 08:33:29;;;;;;;15.10;8.55;;;;;;;;;;5041253;28;20049;-67
2024/01/30 08:35:55;;;;;;;13.75;8.57;;;;;;;;;;5045764;28;20049;-67
2024/01/30 08:38:23;;;;;;;15.77;9.38;;;;;;;;;;5046062;28;20432;-68
2024/01/30 08:40:50;;;;;;;11.73;8.40;;;;;;;;;;5048369;28;20521;-66
2024/01/30 08:43:16;;;;;;;11.43;7.68;;;;;;;;;;5049047;28;20290;-68
2024/01/30 08:45:43;;;;;;;11.95;8.18;;;;;;;;;;5048681;28;20045;-67
2024/01/30 08:48:09;;;;;;;10.68;7.68;;;;;;;;;;5043603;28;20045;-67
2024/01/30 08:50:35;;;;;;;12.05;8.20;;;;;;;;;;5036272;28;20057;-67
2024/01/30 08:53:02;;;;;;;10.05;7.10;;;;;;;;;;5049116;28;20049;-67
2024/01/30 08:55:30;;;;;;;9.80;6.93;;;;;;;;;;5048654;28;20131;-67
2024/01/30 08:57:56;;;;;;;10.43;7.55;;;;;;;;;;5046318;28;20041;-67
2024/01/30 09:00:23;;;;;;;10.98;7.57;;;;;;;;;;5046430;28;20041;-67
2024/01/30 09:02:49;;;;;;;9.77;7.50;;;;;;;;;;5034188;28;20072;-67
2024/01/30 09:05:16;;;;;;;9.43;7.75;;;;;;;;;;5043104;28;20045;-66
2024/01/30 09:07:42;;;;;;;9.35;7.32;;;;;;;;;;5045861;28;20050;-68
2024/01/30 09:10:09;;;;;;;11.80;7.97;;;;;;;;;;5041248;28;20523;-67
2024/01/30 09:12:36;;;;;;;11.40;7.25;;;;;;;;;;5041018;28;20060;-67
2024/01/30 09:15:03;;;;;;;10.13;6.95;;;;;;;;;;5049717;28;20040;-66
2024/01/30 09:17:29;;;;;;;10.02;7.20;;;;;;;;;;5043199;28;20619;-67
2024/01/30 09:19:56;;;;;;;11.13;7.82;;;;;;;;;;5048733;28;20056;-66
2024/01/30 09:22:22;;;;;;;10.98;7.40;;;;;;;;;;5033530;28;20516;-67
2024/01/30 09:24:49;;;;;;;10.40;7.45;;;;;;;;;;5047071;28;20049;-68
2024/01/30 09:27:14;;;;;;;10.65;7.35;;;;;;;;;;5030068;28;20052;-67
2024/01/30 09:29:42;;;;;;;10.23;7.15;;;;;;;;;;5051429;28;20669;-67
2024/01/30 09:32:08;;;;;;;10.65;7.30;;;;;;;;;;5053240;28;20057;-67
2024/01/30 09:34:35;;;;;;;10.73;7.68;;;;;;;;;;5052253;28;20049;-68
2024/01/30 09:37:02;;;;;;;12.23;7.43;;;;;;;;;;5052670;28;20445;-67
2024/01/30 09:39:28;;;;;;;11.57;7.32;;;;;;;;;;5051755;28;20079;-67
2024/01/30 09:41:57;;;;;;;11.40;7.60;;;;;;;;;;5051971;28;20044;-68
2024/01/30 09:44:24;;;;;;;11.07;7.72;;;;;;;;;;5051142;28;20423;-67
2024/01/30 09:46:51;;;;;;;10.15;7.13;;;;;;;;;;5047849;28;20416;-67
2024/01/30 09:49:18;;;;;;;15.10;10.35;;;;;;;;;;5032338;28;20069;-67
2024/01/30 09:51:45;;;;;;;11.93;8.45;;;;;;;;;;5049327;28;20512;-67
2024/01/30 09:54:14;;;;;;;11.27;7.50;;;;;;;;;;5051735;28;20045;-67
2024/01/30 09:56:41;;;;;;;10.65;8.57;;;;;;;;;;5048434;28;20061;-67
2024/01/30 09:59:07;;;;;;;12.13;8.25;;;;;;;;;;5049970;28;20329;-67
2024/01/30 10:01:35;;;;;;;11.02;8.27;;;;;;;;;;5049172;28;20056;-69
2024/01/30 10:04:03;;;;;;;11.25;8.48;;;;;;;;;;5044468;28;20047;-67
2024/01/30 10:06:30;;;;;;;26.80;19.35;;;;;;;;;;5050895;28;20044;-67
2024/01/30 10:08:56;;;;;;;12.65;9.60;;;;;;;;;;5047139;28;20056;-68
2024/01/30 10:11:23;;;;;;;13.10;9.52;;;;;;;;;;5032195;28;20520;-67
2024/01/30 10:13:49;;;;;;;13.95;9.70;;;;;;;;;;5043927;28;20048;-67
2024/01/30 10:16:16;;;;;;;13.98;10.15;;;;;;;;;;5046794;28;20048;-68
2024/01/30 10:18:43;;;;;;;15.95;10.80;;;;;;;;;;5042819;28;20057;-67
2024/01/30 10:21:11;;;;;;;13.13;9.57;;;;;;;;;;5050160;28;20500;-68
2024/01/30 10:23:37;;;;;;;17.63;10.68;;;;;;;;;;5041959;28;20045;-67
2024/01/30 10:26:04;;;;;;;13.30;9.98;;;;;;;;;;5051233;28;20053;-68
2024/01/30 10:28:31;;;;;;;15.60;10.07;;;;;;;;;;5048718;28;20056;-68
2024/01/30 10:31:00;;;;;;;13.63;10.35;;;;;;;;;;5043757;28;20079;-68
2024/01/30 10:33:28;;;;;;;13.45;10.57;;;;;;;;;;5043132;28;20091;-68
2024/01/30 10:35:55;;;;;;;13.10;10.48;;;;;;;;;;5051001;28;20520;-68
2024/01/30 10:38:24;;;;;;;13.38;9.98;;;;;;;;;;5051304;28;20103;-67
2024/01/30 10:40:53;;;;;;;16.70;10.57;;;;;;;;;;5050097;28;20044;-68
2024/01/30 10:43:22;;;;;;;16.17;10.95;;;;;;;;;;5051284;28;20052;-68
2024/01/30 10:45:50;;;;;;;18.80;12.63;;;;;;;;;;5044174;28;20053;-68
2024/01/30 10:48:18;;;;;;;15.07;11.20;;;;;;;;;;5038026;28;20051;-69
2024/01/30 10:50:46;;;;;;;15.52;12.43;;;;;;;;;;5037130;28;20073;-68
2024/01/30 10:53:13;;;;;;;16.73;11.93;;;;;;;;;;5037292;28;20056;-68
2024/01/30 10:55:42;;;;;;;16.70;11.77;;;;;;;;;;5034218;28;20046;-68
2024/01/30 10:58:10;;;;;;;18.80;11.52;;;;;;;;;;5046128;28;20500;-68
2024/01/30 11:00:36;;;;;;;16.55;11.25;;;;;;;;;;5038374;28;20079;-68
2024/01/30 11:03:03;;;;;;;16.42;11.25;;;;;;;;;;5052015;28;20150;-68
2024/01/30 11:05:30;;;;;;;19.23;12.43;;;;;;;;;;5051939;28;20133;-68
2024/01/30 11:07:56;;;;;;;18.20;12.07;;;;;;;;;;5052079;28;20479;-67
2024/01/30 11:10:25;;;;;;;19.98;12.95;;;;;;;;;;5040236;28;20055;-68
2024/01/30 11:12:53;;;;;;;16.30;11.20;;;;;;;;;;5051148;28;20051;-69
2024/01/30 11:15:21;;;;;;;15.52;10.48;;;;;;;;;;5051709;28;20134;-68
2024/01/30 11:17:51;;;;;;;14.90;10.45;;;;;;;;;;5047436;28;20084;-68
2024/01/30 11:20:19;;;;;;;15.38;10.25;;;;;;;;;;5051053;28;20045;-68
2024/01/30 11:22:46;;;;;;;14.25;9.90;;;;;;;;;;5051042;28;20132;-68
2024/01/30 11:25:13;;;;;;;15.60;9.75;;;;;;;;;;5051426;28;20045;-68
2024/01/30 11:27:39;;;;;;;14.95;10.25;;;;;;;;;;5040790;28;20045;-68
2024/01/30 11:30:08;;;;;;;18.55;11.68;;;;;;;;;;5047662;28;20049;-68
2024/01/30 11:32:34;;;;;;;20.85;13.02;;;;;;;;;;5043257;28;20059;-68
2024/01/30 11:35:01;;;;;;;21.67;13.18;;;;;;;;;;5050464;28;20045;-68
2024/01/30 11:37:27;;;;;;;18.30;11.73;;;;;;;;;;5047387;28;20412;-68
2024/01/30 11:39:54;;;;;;;15.65;10.25;;;;;;;;;;5037047;28;20067;-68
2024/01/30 11:42:21;;;;;;;18.05;10.30;;;;;;;;;;5050215;28;20053;-69
2024/01/30 11:44:47;;;;;;;13.70;10.32;;;;;;;;;;5041499;28;20050;-69
2024/01/30 11:47:15;;;;;;;13.70;9.85;;;;;;;;;;5050942;28;20056;-69
2024/01/30 11:49:42;;;;;;;14.07;9.30;;;;;;;;;;5046084;28;20057;-69
2024/01/30 11:52:08;;;;;;;13.55;9.38;;;;;;;;;;5039286;28;20053;-68
2024/01/30 11:54:35;;;;;;;14.50;9.50;;;;;;;;;;5048515;28;20152;-69
2024/01/30 11:57:01;;;;;;;14.45;9.55;;;;;;;;;;5043148;28;20050;-68
2024/01/30 11:59:28;;;;;;;15.10;9.93;;;;;;;;;;5039805;28;20073;-69
2024/01/30 12:01:54;;;;;;;15.43;10.35;;;;;;;;;;5042792;28;20128;-68
2024/01/30 12:04:22;;;;;;;18.20;11.25;;;;;;;;;;5044966;28;20053;-69
2024/01/30 12:06:51;;;;;;;17.50;10.13;;;;;;;;;;5042899;28;20513;-69
2024/01/30 12:09:18;;;;;;;14.80;10.00;;;;;;;;;;5048815;28;20045;-68
2024/01/30 12:11:44;;;;;;;17.83;10.82;;;;;;;;;;5047451;28;20547;-69
2024/01/30 12:14:11;;;;;;;15.82;9.98;;;;;;;;;;5043654;28;20323;-69
2024/01/30 12:16:37;;;;;;;15.98;10.38;;;;;;;;;;5033906;28;20048;-69
2024/01/30 12:19:03;;;;;;;14.77;10.50;;;;;;;;;;5049749;28;20052;-68
2024/01/30 12:21:31;;;;;;;15.57;9.55;;;;;;;;;;5049766;28;20053;-68
2024/01/30 12:23:58;;;;;;;14.38;9.32;;;;;;;;;;5050427;28;20055;-69
2024/01/30 12:26:25;;;;;;;14.32;9.70;;;;;;;;;;5050503;28;20048;-69
2024/01/30 12:28:51;;;;;;;13.27;9.80;;;;;;;;;;5046789;28;20041;-69
2024/01/30 12:31:18;;;;;;;14.15;10.35;;;;;;;;;;5050050;28;20052;-69
2024/01/30 12:33:44;;;;;;;16.08;10.27;;;;;;;;;;5050192;28;20045;-68
2024/01/30 12:36:12;;;;;;;16.77;10.70;;;;;;;;;;5049886;28;20080;-69
2024/01/30 12:38:40;;;;;;;17.95;10.40;;;;;;;;;;5049813;28;20412;-68
2024/01/30 12:41:08;;;;;;;15.45;10.15;;;;;;;;;;5049888;28;20067;-68
2024/01/30 12:43:34;;;;;;;15.60;9.45;;;;;;;;;;5048871;28;20390;-68
2024/01/30 12:46:00;;;;;;;15.07;10.07;;;;;;;;;;5042294;28;20045;-69
2024/01/30 12:48:28;;;;;;;13.20;8.90;;;;;;;;;;5049827;28;20067;-68
2024/01/30 12:50:55;;;;;;;17.98;10.25;;;;;;;;;;5045742;28;20141;-68
2024/01/30 12:53:21;;;;;;;14.15;9.18;;;;;;;;;;5050193;28;20057;-68
2024/01/30 12:55:49;;;;;;;17.73;10.02;;;;;;;;;;5047643;28;20045;-68
2024/01/30 12:58:16;;;;;;;15.80;10.52;;;;;;;;;;5050509;28;20552;-68
2024/01/30 13:00:43;;;;;;;15.98;10.95;;;;;;;;;;5049224;28;20080;-67
2024/01/30 13:03:09;;;;;;;15.50;10.32;;;;;;;;;;5050732;28;20045;-68
2024/01/30 13:05:36;;;;;;;15.73;10.57;;;;;;;;;;5054335;28;20056;-68
2024/01/30 13:08:02;;;;;;;16.40;10.65;;;;;;;;;;5054644;28;20045;-68
2024/01/30 13:10:29;;;;;;;16.20;9.52;;;;;;;;;;5045748;28;20420;-68
2024/01/30 13:12:56;;;;;;;14.80;9.32;;;;;;;;;;5045368;28;20071;-69
2024/01/30 13:15:23;;;;;;;17.13;10.70;;;;;;;;;;5046489;28;20045;-68
2024/01/30 13:17:49;;;;;;;21.15;10.95;;;;;;;;;;5052767;28;20048;-67
2024/01/30 13:20:19;;;;;;;16.00;11.98;;;;;;;;;;5053541;28;20087;-68
2024/01/30 13:22:45;;;;;;;17.15;10.18;;;;;;;;;;5047996;28;20520;-68
2024/01/30 13:25:12;;;;;;;16.10;9.57;;;;;;;;;;5045977;28;20077;-68
2024/01/30 13:27:38;;;;;;;17.08;11.32;;;;;;;;;;5053350;28;20056;-67
2024/01/30 13:30:07;;;;;;;19.98;10.52;;;;;;;;;;5052798;28;20051;-68
2024/01/30 13:32:34;;;;;;;16.23;10.18;;;;;;;;;;5051759;28;20144;-67
2024/01/30 13:35:00;;;;;;;14.35;8.93;;;;;;;;;;5047155;28;20068;-68
2024/01/30 13:37:26;;;;;;;11.38;8.10;;;;;;;;;;5043347;28;20534;-68
2024/01/30 13:39:53;;;;;;;13.27;8.57;;;;;;;;;;5052877;28;20041;-68
2024/01/30 13:42:20;;;;;;;12.77;8.48;;;;;;;;;;5051697;28;20485;-68
2024/01/30 13:44:46;;;;;;;14.13;9.10;;;;;;;;;;5045876;28;20048;-67
2024/01/30 13:47:14;;;;;;;12.40;8.25;;;;;;;;;;5046983;28;20053;-68
2024/01/30 13:49:40;;;;;;;13.38;7.55;;;;;;;;;;5043211;28;20418;-67
2024/01/30 13:52:06;;;;;;;13.52;7.40;;;;;;;;;;5042751;28;20067;-68
2024/01/30 13:54:33;;;;;;;11.38;8.07;;;;;;;;;;5051278;28;20045;-68
2024/01/30 13:56:59;;;;;;;12.00;7.43;;;;;;;;;;5042245;28;20045;-68
2024/01/30 13:59:26;;;;;;;11.60;7.80;;;;;;;;;;5046353;28;20049;-68
2024/01/30 14:01:52;;;;;;;11.57;7.43;;;;;;;;;;5052416;28;20049;-68
2024/01/30 14:04:20;;;;;;;12.20;8.18;;;;;;;;;;5052989;28;20268;-68
2024/01/30 14:06:46;;;;;;;13.93;8.23;;;;;;;;;;5051853;28;20045;-67
2024/01/30 14:09:14;;;;;;;14.70;8.07;;;;;;;;;;5046199;28;20666;-68
2024/01/30 14:11:41;;;;;;;10.90;7.70;;;;;;;;;;5051161;28;20055;-68
2024/01/30 14:14:07;;;;;;;12.63;9.38;;;;;;;;;;5052505;28;20052;-68
2024/01/30 14:16:34;;;;;;;13.45;9.55;;;;;;;;;;5051889;28;20055;-68
2024/01/30 14:19:00;;;;;;;13.23;8.82;;;;;;;;;;5052263;28;20045;-68
2024/01/30 14:21:28;;;;;;;10.95;6.35;;;;;;;;;;5048413;28;20128;-68
2024/01/30 14:23:54;;;;;;;10.77;6.25;;;;;;;;;;5048503;28;20045;-66